Time;durP1;ratioP1;P1;durP2;ratioP2;P2;SDS_P1;SDS_P2;PMS_P1;PMS_P2;Temp;Humidity;BMP_temperature;BMP_pressure;BME280_temperature;BME280_humidity;BME280_pressure;Samples;Min_cycle;Max_cycle;Signal;HPM_P1;HPM_P2
2023/02/15 00:01:11;;;;;;;52.22;25.98;;;;;;;1.08;70.35;101359.94;5031433;28;20028;-35
2023/02/15 00:03:37;;;;;;;41.50;21.23;;;;;;;0.89;70.86;101350.09;5032306;28;20025;-39
2023/02/15 00:06:03;;;;;;;39.78;19.55;;;;;;;0.97;69.98;101356.41;5035184;28;20063;-35
2023/02/15 00:08:29;;;;;;;37.42;19.45;;;;;;;0.75;71.72;101366.97;5032221;28;20112;-35
2023/02/15 00:11:07;;;;;;;43.78;20.55;;;;;;;0.59;71.95;101365.59;5032431;28;20045;-35
2023/02/15 00:13:32;;;;;;;42.15;20.60;;;;;;;0.55;72.27;101384.31;5047453;28;20040;-34
2023/02/15 00:16:05;;;;;;;43.10;21.77;;;;;;;0.39;72.95;101374.19;5052295;28;20040;-35
2023/02/15 00:18:32;;;;;;;54.58;25.50;;;;;;;-0.04;74.17;101357.38;5037556;28;20543;-35
2023/02/15 00:20:58;;;;;;;53.00;26.42;;;;;;;0.26;73.12;101374.31;5032137;28;20079;-35
2023/02/15 00:23:23;;;;;;;49.90;26.00;;;;;;;0.19;73.04;101387.06;5031837;28;20034;-35
2023/02/15 00:25:49;;;;;;;49.92;25.50;;;;;;;0.32;72.56;101384.31;5031776;28;20044;-35
2023/02/15 00:28:15;;;;;;;48.50;23.45;;;;;;;0.29;71.72;101374.06;5032148;28;20032;-34
2023/02/15 00:30:41;;;;;;;55.50;25.33;;;;;;;-0.08;72.12;101370.81;5030524;28;20041;-35
2023/02/15 00:33:06;;;;;;;55.17;27.38;;;;;;;0.18;71.56;101389.81;5034487;28;20060;-35
2023/02/15 00:35:32;;;;;;;55.53;26.00;;;;;;;0.27;70.59;101385.66;5046951;28;20344;-34
2023/02/15 00:37:59;;;;;;;52.88;25.80;;;;;;;-0.26;71.69;101362.59;5040466;28;20482;-34
2023/02/15 00:40:25;;;;;;;53.17;26.60;;;;;;;0.26;70.54;101374.31;5031574;28;20045;-35
2023/02/15 00:42:50;;;;;;;50.38;25.30;;;;;;;-0.10;72.70;101373.59;5031018;28;20041;-34
2023/02/15 00:45:16;;;;;;;58.58;26.95;;;;;;;-0.17;72.75;101374.16;5031479;28;20495;-35
2023/02/15 00:47:41;;;;;;;55.60;26.92;;;;;;;-0.04;71.28;101372.25;5031614;28;20697;-34
2023/02/15 00:50:07;;;;;;;48.85;24.58;;;;;;;-0.15;72.70;101396.69;5031793;28;20033;-34
2023/02/15 00:52:32;;;;;;;50.15;24.67;;;;;;;-0.33;73.35;101366.63;5031284;28;20036;-35
2023/02/15 00:54:57;;;;;;;46.50;24.50;;;;;;;-0.36;73.41;101367.69;5031441;28;20477;-34
2023/02/15 00:57:23;;;;;;;45.17;23.00;;;;;;;-0.21;73.23;101370.94;5031048;28;20025;-36
2023/02/15 00:59:49;;;;;;;42.70;21.63;;;;;;;0.36;71.69;101388.38;5031365;28;20440;-35
2023/02/15 01:02:14;;;;;;;43.30;23.40;;;;;;;-0.15;71.48;101349.47;5037534;28;20036;-35
2023/02/15 01:04:40;;;;;;;41.25;21.83;;;;;;;0.17;72.24;101385.53;5031423;28;20026;-34
2023/02/15 01:07:05;;;;;;;41.38;21.95;;;;;;;0.26;70.94;101363.81;5031166;28;20136;-35
2023/02/15 01:09:31;;;;;;;44.38;23.02;;;;;;;0.36;69.84;101375.25;5033049;28;20086;-35
2023/02/15 01:11:56;;;;;;;41.85;21.83;;;;;;;-0.26;72.19;101370.47;5051237;28;20029;-35
2023/02/15 01:14:22;;;;;;;45.08;21.38;;;;;;;0.09;71.54;101367.75;5050965;28;20033;-34
2023/02/15 01:16:47;;;;;;;42.75;22.45;;;;;;;-0.07;72.31;101341.88;5044420;28;20036;-35
2023/02/15 01:19:12;;;;;;;48.65;23.15;;;;;;;0.07;71.25;101347.84;5030764;28;20033;-35
2023/02/15 01:21:40;;;;;;;42.63;22.15;;;;;;;0.01;71.27;101350.94;5031082;28;20033;-35
2023/02/15 01:24:12;;;;;;;41.67;21.93;;;;;;;-0.21;72.25;101366.50;5030658;28;20036;-35
2023/02/15 01:26:37;;;;;;;45.58;20.27;;;;;;;-0.55;73.85;101341.19;5030970;28;20050;-34
2023/02/15 01:29:02;;;;;;;37.95;18.52;;;;;;;-0.20;73.53;101367.38;5031023;28;20032;-35
2023/02/15 01:31:28;;;;;;;35.72;18.58;;;;;;;-0.32;74.72;101336.84;5030618;28;20021;-35
2023/02/15 01:33:53;;;;;;;38.97;18.42;;;;;;;-0.22;74.81;101353.53;5035525;28;20061;-35
2023/02/15 01:36:19;;;;;;;33.03;18.75;;;;;;;-0.15;73.95;101353.91;5039371;28;20473;-35
2023/02/15 01:38:45;;;;;;;35.03;17.70;;;;;;;-0.23;74.25;101364.97;5030483;28;20017;-35
2023/02/15 01:41:20;;;;;;;36.05;18.55;;;;;;;-0.46;75.04;101338.72;5030771;28;20046;-35
2023/02/15 01:43:57;;;;;;;35.50;19.02;;;;;;;-0.63;76.36;101324.28;5030807;28;20022;-35
2023/02/15 01:46:27;;;;;;;36.85;18.67;;;;;;;-0.28;74.64;101333.03;5030601;28;20541;-35
2023/02/15 01:49:00;;;;;;;36.78;19.38;;;;;;;0.05;74.22;101363.69;5030549;28;20079;-35
2023/02/15 01:51:29;;;;;;;43.08;20.23;;;;;;;-0.03;74.21;101351.16;5029942;28;20026;-35
2023/02/15 01:54:11;;;;;;;39.08;19.90;;;;;;;0.06;73.57;101364.53;5030330;28;20035;-35
2023/02/15 01:56:39;;;;;;;42.95;20.48;;;;;;;-0.07;74.49;101356.78;5030305;28;20029;-35
2023/02/15 01:59:11;;;;;;;47.97;22.55;;;;;;;-0.16;73.83;101353.06;5030842;28;20357;-35
2023/02/15 02:01:37;;;;;;;49.70;22.40;;;;;;;-0.10;73.64;101368.34;5030042;28;20496;-35
2023/02/15 02:04:23;;;;;;;47.95;21.63;;;;;;;-0.21;75.06;101371.75;5038694;28;20060;-35
2023/02/15 02:06:50;;;;;;;44.40;19.92;;;;;;;-0.14;74.68;101377.38;5034820;28;20059;-35
2023/02/15 02:09:16;;;;;;;40.00;20.05;;;;;;;0.07;73.75;101363.59;5029910;28;20375;-35
2023/02/15 02:11:44;;;;;;;34.72;19.67;;;;;;;-0.17;74.38;101372.38;5033012;28;20036;-35
2023/02/15 02:14:10;;;;;;;38.45;19.60;;;;;;;-0.36;75.59;101372.09;5049855;28;20017;-35
2023/02/15 02:16:47;;;;;;;44.13;21.77;;;;;;;0.14;73.42;101375.25;5049911;28;20405;-35
2023/02/15 02:19:58;;;;;;;42.13;23.20;;;;;;;0.27;72.09;101386.47;5050018;28;20109;-35
2023/02/15 02:22:35;;;;;;;176.00;61.55;;;;;;;0.01;72.96;101390.28;5049241;28;20131;-35
2023/02/15 02:25:16;;;;;;;41.70;22.17;;;;;;;-0.04;72.39;101386.22;5049820;28;20032;-35
2023/02/15 02:27:50;;;;;;;38.20;19.65;;;;;;;-0.03;72.30;101382.63;5050025;28;20037;-35
2023/02/15 02:30:37;;;;;;;37.00;18.80;;;;;;;-0.27;73.51;101366.16;5049617;28;20080;-35
2023/02/15 02:33:29;;;;;;;41.20;20.50;;;;;;;-0.42;73.11;101378.63;5048570;28;20398;-35
2023/02/15 02:35:57;;;;;;;38.55;19.17;;;;;;;-0.56;74.04;101370.97;5037502;28;20117;-35
2023/02/15 02:38:29;;;;;;;38.78;18.67;;;;;;;-0.61;74.56;101385.25;5029366;28;20405;-35
2023/02/15 02:40:57;;;;;;;38.35;18.83;;;;;;;-0.60;74.04;101370.34;5029366;28;20505;-35
2023/02/15 02:43:31;;;;;;;;;;;;;;;-0.90;74.01;101366.44;5045019;28;20033;-35
2023/02/15 02:46:06;;;;;;;37.60;18.80;;;;;;;-0.95;75.03;101352.00;5049429;28;19960;-35
2023/02/15 02:48:34;;;;;;;41.50;19.63;;;;;;;-1.02;75.04;101375.19;5049342;28;20025;-35
2023/02/15 02:50:59;;;;;;;41.95;20.40;;;;;;;-1.31;77.43;101380.75;5049245;28;20112;-35
2023/02/15 02:53:27;;;;;;;45.55;20.95;;;;;;;-1.24;77.03;101366.25;5049011;28;20037;-35
2023/02/15 02:55:59;;;;;;;70.95;29.08;;;;;;;-1.04;77.89;101377.09;5049195;28;20035;-34
2023/02/15 02:58:45;;;;;;;58.58;25.60;;;;;;;-0.88;77.56;101388.13;5040188;28;20029;-35
2023/02/15 03:01:15;;;;;;;47.58;20.98;;;;;;;-0.83;76.80;101386.00;5029281;28;20029;-34
2023/02/15 03:03:51;;;;;;;59.00;26.00;;;;;;;-0.66;76.33;101389.16;5029267;28;20048;-35
2023/02/15 03:06:23;;;;;;;60.92;26.25;;;;;;;-0.89;76.15;101389.06;5044443;28;20051;-35
2023/02/15 03:08:53;;;;;;;52.90;23.52;;;;;;;-0.95;77.28;101407.84;5048228;28;20431;-35
2023/02/15 03:11:19;;;;;;;40.60;21.55;;;;;;;-0.93;77.24;101392.03;5033129;28;20111;-34
2023/02/15 03:13:48;;;;;;;36.33;17.45;;;;;;;-0.68;75.74;101384.03;5029038;28;20065;-35
2023/02/15 03:16:26;;;;;;;38.13;20.50;;;;;;;-1.03;76.21;101378.75;5029166;28;20556;-35
2023/02/15 03:19:15;;;;;;;39.08;18.65;;;;;;;-0.94;76.82;101403.44;5028966;28;20033;-35
2023/02/15 03:21:49;;;;;;;;;;;;;;;-0.86;76.12;101411.56;5029871;28;20156;-35
2023/02/15 03:24:19;;;;;;;33.47;16.48;;;;;;;-0.86;75.40;101383.63;5028838;28;19999;-35
2023/02/15 03:26:48;;;;;;;37.00;19.83;;;;;;;-0.81;75.04;101410.28;5029076;28;20036;-35
2023/02/15 03:29:16;;;;;;;40.40;18.77;;;;;;;-1.09;75.96;101384.44;5027639;28;20401;-35
2023/02/15 03:31:46;;;;;;;40.20;19.23;;;;;;;-0.95;75.57;101384.25;5029347;28;20477;-36
2023/02/15 03:34:15;;;;;;;38.33;19.65;;;;;;;-1.16;75.24;101393.69;5031727;28;20025;-35
2023/02/15 03:37:00;;;;;;;34.00;18.13;;;;;;;-1.53;77.15;101391.03;5045981;28;20043;-35
2023/02/15 03:39:48;;;;;;;40.72;19.23;;;;;;;-1.25;75.90;101375.06;5048518;28;20135;-35
2023/02/15 03:42:17;;;;;;;39.85;17.88;;;;;;;-1.19;76.39;101383.41;5037294;28;20068;-35
2023/02/15 03:44:54;;;;;;;36.50;19.23;;;;;;;-0.99;75.02;101413.41;5029124;28;20033;-34
2023/02/15 03:47:28;;;;;;;32.60;16.73;;;;;;;-1.16;74.65;101388.44;5028867;28;20033;-35
2023/02/15 03:50:02;;;;;;;32.15;16.50;;;;;;;-1.32;74.71;101420.94;5027544;28;20114;-34
2023/02/15 03:52:30;;;;;;;35.08;16.85;;;;;;;-1.35;74.90;101399.38;5029027;28;20041;-35
2023/02/15 03:54:56;;;;;;;31.77;16.15;;;;;;;-1.29;74.75;101414.66;5034207;28;20060;-35
2023/02/15 04:03:14;;;;;;;27.55;14.35;;;;;;;-1.44;76.42;101421.81;5048749;28;20106;-35
2023/02/15 04:05:40;;;;;;;35.00;14.83;;;;;;;-1.55;75.93;101403.38;5044093;28;20041;-35
2023/02/15 04:08:06;;;;;;;29.98;14.48;;;;;;;-1.62;76.10;101422.13;5028732;28;20784;-34
2023/02/15 04:13:15;;;;;;;29.77;14.52;;;;;;;-1.27;74.83;101424.09;5028488;28;20040;-35
2023/02/15 04:26:39;;;;;;;30.60;15.00;;;;;;;-1.46;75.09;101434.16;5032062;28;20044;-35
2023/02/15 04:29:04;;;;;;;29.08;14.52;;;;;;;-1.37;74.26;101433.50;5031847;28;20441;-35
2023/02/15 04:31:30;;;;;;;26.17;13.52;;;;;;;-1.51;75.52;101441.47;5031663;28;20417;-35
2023/02/15 04:33:58;;;;;;;28.23;13.95;;;;;;;-1.33;74.31;101452.44;5031719;28;20403;-35
2023/02/15 04:36:23;;;;;;;28.90;13.70;;;;;;;-1.46;74.18;101423.69;5043063;28;20036;-35
2023/02/15 04:38:48;;;;;;;32.83;14.50;;;;;;;-1.26;73.62;101449.28;5051829;28;20430;-36
2023/02/15 04:41:14;;;;;;;32.13;14.32;;;;;;;-1.44;74.46;101442.72;5036775;28;20501;-35
2023/02/15 04:43:39;;;;;;;58.03;26.65;;;;;;;-1.35;73.32;101449.09;5031829;28;20036;-35
2023/02/15 04:46:05;;;;;;;31.85;14.70;;;;;;;-1.55;73.64;101450.47;5035058;28;20117;-35
2023/02/15 04:48:30;;;;;;;45.17;18.13;;;;;;;-1.49;73.23;101470.97;5039302;28;20503;-35
2023/02/15 04:50:55;;;;;;;200.20;62.50;;;;;;;-1.53;73.24;101445.97;5031658;28;20080;-35
2023/02/15 04:53:21;;;;;;;55.22;21.45;;;;;;;-1.36;72.81;101477.06;5038684;28;20047;-35
2023/02/15 04:55:50;;;;;;;46.42;17.58;;;;;;;-1.59;74.04;101464.72;5035310;28;20037;-35
2023/02/15 04:58:15;;;;;;;;;;;;;;;-1.34;72.35;101477.78;5031884;28;20021;-35
2023/02/15 05:00:40;;;;;;;55.85;19.65;;;;;;;-1.42;72.95;101480.94;5031522;28;19959;-35
2023/02/15 05:03:08;;;;;;;105.18;38.10;;;;;;;-1.56;73.06;101490.69;5031094;28;20416;-35
2023/02/15 05:05:36;;;;;;;43.70;17.42;;;;;;;-1.73;73.79;101481.38;5031246;28;20032;-36
2023/02/15 05:08:01;;;;;;;38.53;16.02;;;;;;;-1.91;75.33;101467.75;5031107;28;20099;-35
2023/02/15 05:10:26;;;;;;;30.90;14.00;;;;;;;-1.76;76.58;101485.00;5031320;28;20029;-35
2023/02/15 05:12:52;;;;;;;29.30;14.27;;;;;;;-1.47;76.51;101480.44;5031032;28;20029;-36
2023/02/15 05:15:20;;;;;;;34.55;14.95;;;;;;;-1.69;75.04;101486.28;5030746;28;20083;-35
2023/02/15 05:17:46;;;;;;;32.70;14.63;;;;;;;-1.66;76.09;101491.28;5030936;28;20908;-35
2023/02/15 05:20:11;;;;;;;31.30;13.98;;;;;;;-1.47;75.70;101497.88;5031023;28;20030;-35
2023/02/15 05:22:40;;;;;;;32.20;14.55;;;;;;;-1.46;75.02;101503.00;5030951;28;20041;-35
2023/02/15 05:30:34;;;;;;;54.25;21.38;;;;;;;-1.99;75.60;101517.09;5030889;28;20036;-35
2023/02/15 05:32:59;;;;;;;49.08;18.42;;;;;;;-2.00;75.33;101492.75;5030854;28;20021;-35
2023/02/15 05:35:25;;;;;;;43.20;19.02;;;;;;;-1.60;74.87;101521.44;5030661;28;20048;-35
2023/02/15 05:37:50;;;;;;;32.13;16.20;;;;;;;-1.49;74.88;101539.00;5038281;28;20075;-36
2023/02/15 05:40:16;;;;;;;33.10;16.27;;;;;;;-1.49;73.88;101539.88;5030382;28;20505;-35
2023/02/15 05:42:41;;;;;;;30.92;14.15;;;;;;;11.44;82.17;101548.78;5037575;28;20068;-36
2023/02/15 05:45:07;;;;;;;29.40;14.93;;;;;;;14.59;51.65;101582.44;5050500;28;20117;-36
2023/02/15 05:47:32;;;;;;;31.63;16.65;;;;;;;13.86;45.53;101577.00;5050247;28;20074;-36
2023/02/15 05:49:58;;;;;;;25.42;15.80;;;;;;;12.39;40.78;101581.59;5048698;28;20056;-36
2023/02/15 05:52:23;;;;;;;26.00;16.55;;;;;;;9.31;41.07;101571.19;5048651;28;20049;-36
2023/02/15 05:54:48;;;;;;;31.63;16.10;;;;;;;8.33;51.01;101558.94;5030153;28;20034;-35
2023/02/15 05:57:14;;;;;;;21.67;12.85;;;;;;;8.72;45.02;101559.09;5035819;28;20025;-35
2023/02/15 05:59:39;;;;;;;25.40;13.93;;;;;;;7.57;56.56;101564.38;5049341;28;20107;-35
2023/02/15 06:02:06;;;;;;;30.42;15.98;;;;;;;6.11;57.07;101546.66;5049968;28;20028;-35
2023/02/15 06:04:31;;;;;;;27.48;15.23;;;;;;;8.97;47.85;101577.63;5050002;28;20032;-35
2023/02/15 06:06:57;;;;;;;41.53;20.98;;;;;;;8.64;50.86;101578.56;5049853;28;20478;-35
2023/02/15 06:09:22;;;;;;;51.95;26.48;;;;;;;11.07;47.79;101581.78;5043098;28;20049;-35
2023/02/15 06:11:47;;;;;;;45.30;25.80;;;;;;;8.09;46.79;101573.91;5030172;28;20124;-35
2023/02/15 06:14:15;;;;;;;49.78;28.85;;;;;;;5.22;51.96;101567.59;5031801;28;20033;-36
2023/02/15 06:16:41;;;;;;;46.85;25.35;;;;;;;3.77;61.35;101558.16;5038788;28;20049;-35
2023/02/15 06:19:06;;;;;;;44.25;22.73;;;;;;;2.98;63.50;101553.66;5029862;28;20466;-35
2023/02/15 06:21:32;;;;;;;42.40;21.48;;;;;;;3.03;62.00;101567.28;5032089;28;20028;-35
2023/02/15 06:23:57;;;;;;;37.67;20.10;;;;;;;2.54;61.94;101585.47;5038282;28;20040;-35
2023/02/15 06:26:23;;;;;;;34.75;19.83;;;;;;;1.86;68.46;101578.84;5029649;28;20076;-35
2023/02/15 06:28:48;;;;;;;37.92;21.42;;;;;;;1.96;69.57;101580.59;5030136;28;20459;-35
2023/02/15 06:31:14;;;;;;;38.75;21.35;;;;;;;1.19;68.42;101594.63;5028438;28;20025;-34
2023/02/15 06:33:39;;;;;;;78.80;35.35;;;;;;;0.47;67.92;101601.91;5038042;28;20558;-34
2023/02/15 06:36:05;;;;;;;88.28;43.20;;;;;;;0.32;70.13;101594.25;5032622;28;20034;-35
2023/02/15 06:38:30;;;;;;;93.32;46.88;;;;;;;0.29;70.00;101598.91;5029522;28;20444;-35
2023/02/15 06:40:56;;;;;;;67.53;35.88;;;;;;;0.04;71.30;101579.75;5028690;28;20497;-35
2023/02/15 06:43:21;;;;;;;76.57;39.63;;;;;;;0.29;72.62;101593.66;5029407;28;20036;-35
2023/02/15 06:45:47;;;;;;;85.82;47.03;;;;;;;-0.14;73.09;101563.56;5038880;28;20025;-35
2023/02/15 06:48:12;;;;;;;129.02;67.88;;;;;;;0.38;72.78;101592.97;5036159;28;20063;-35
2023/02/15 06:50:38;;;;;;;63.97;32.10;;;;;;;0.37;72.82;101583.44;5036464;28;20489;-35
2023/02/15 06:53:03;;;;;;;57.58;27.65;;;;;;;0.35;73.56;101566.97;5029599;28;20030;-34
2023/02/15 06:55:29;;;;;;;50.50;27.42;;;;;;;0.77;72.54;101586.47;5029169;28;20026;-35
2023/02/15 06:57:54;;;;;;;42.83;23.60;;;;;;;0.67;72.91;101569.75;5029203;28;20031;-34
2023/02/15 07:00:22;;;;;;;49.33;26.15;;;;;;;0.92;72.95;101581.00;5029381;28;20034;-34
2023/02/15 07:02:54;;;;;;;48.83;24.13;;;;;;;1.07;73.19;101564.03;5029344;28;20482;-35
2023/02/15 07:05:20;;;;;;;35.47;19.10;;;;;;;1.32;72.35;101580.50;5029249;28;20120;-34
2023/02/15 07:07:46;;;;;;;36.85;19.77;;;;;;;1.37;72.95;101581.00;5029253;28;20109;-35
2023/02/15 07:10:11;;;;;;;36.28;17.92;;;;;;;1.58;72.39;101571.38;5038823;28;20215;-35
2023/02/15 07:12:43;;;;;;;33.75;16.30;;;;;;;1.88;71.34;101576.91;5049054;28;20779;-35
2023/02/15 07:15:14;;;;;;;30.67;16.88;;;;;;;2.03;70.63;101583.56;5049333;28;20044;-35
2023/02/15 07:17:40;;;;;;;36.78;17.83;;;;;;;2.18;69.64;101581.47;5048618;28;20522;-35
2023/02/15 07:20:13;;;;;;;79.40;36.78;;;;;;;2.27;67.59;101585.13;5047880;28;20040;-35
2023/02/15 07:22:38;;;;;;;45.67;23.00;;;;;;;2.63;66.79;101586.47;5048842;28;20029;-36
2023/02/15 07:25:07;;;;;;;45.88;23.20;;;;;;;2.60;66.57;101581.47;5049181;28;20032;-35
2023/02/15 07:27:32;;;;;;;;;;;;;;;2.77;65.91;101572.13;5049104;28;20025;-35
2023/02/15 07:29:58;;;;;;;59.33;28.92;;;;;;;2.86;66.17;101575.78;5047590;28;19922;-35
2023/02/15 07:32:30;;;;;;;58.40;29.35;;;;;;;3.24;65.72;101575.13;5048861;28;20080;-34
2023/02/15 07:34:55;;;;;;;50.40;28.13;;;;;;;3.42;64.48;101583.22;5048830;28;20032;-35
2023/02/15 07:37:20;;;;;;;45.88;25.23;;;;;;;3.46;65.07;101587.25;5047020;28;20036;-36
2023/02/15 07:39:46;;;;;;;75.47;39.42;;;;;;;3.66;64.79;101589.94;5038155;28;20055;-36
2023/02/15 07:42:11;;;;;;;58.28;30.40;;;;;;;3.82;64.66;101575.25;5048879;28;20047;-35
2023/02/15 07:44:37;;;;;;;48.80;25.85;;;;;;;3.87;63.46;101569.56;5034332;28;20029;-35
2023/02/15 07:47:02;;;;;;;40.15;22.17;;;;;;;3.99;63.76;101589.56;5038675;28;20633;-35
2023/02/15 07:49:28;;;;;;;55.00;29.60;;;;;;;4.12;64.32;101580.53;5038321;28;20049;-36
2023/02/15 07:51:55;;;;;;;49.72;28.27;;;;;;;4.49;63.59;101585.09;5040079;28;20034;-36
2023/02/15 07:54:21;;;;;;;33.17;20.35;;;;;;;4.22;64.29;101568.16;5032566;28;20071;-36
2023/02/15 07:56:46;;;;;;;31.38;18.65;;;;;;;4.51;63.87;101585.78;5036774;28;20033;-35
2023/02/15 07:59:12;;;;;;;34.58;19.63;;;;;;;4.73;63.50;101569.59;5052542;28;20055;-35
2023/02/15 08:01:39;;;;;;;35.13;19.20;;;;;;;4.74;63.61;101587.13;5052198;28;20497;-36
2023/02/15 08:04:06;;;;;;;40.35;22.90;;;;;;;4.85;63.58;101566.78;5052271;28;20036;-36
2023/02/15 08:06:35;;;;;;;46.40;22.00;;;;;;;5.00;62.41;101575.91;5050792;28;20478;-36
2023/02/15 08:09:02;;;;;;;48.40;25.58;;;;;;;4.98;62.80;101567.28;5052712;28;20044;-36
2023/02/15 08:11:36;;;;;;;40.67;21.92;;;;;;;5.50;61.03;101593.22;5051953;28;20056;-36
2023/02/15 08:14:06;;;;;;;51.38;26.48;;;;;;;5.86;61.03;101588.78;5052203;28;20032;-36
2023/02/15 08:16:42;;;;;;;60.42;30.88;;;;;;;6.16;59.34;101587.63;5052065;28;20116;-35
2023/02/15 08:19:12;;;;;;;47.15;22.92;;;;;;;6.44;58.66;101588.34;5052283;28;20037;-36
2023/02/15 08:21:40;;;;;;;40.15;22.10;;;;;;;6.20;58.66;101586.31;5050320;28;20025;-36
2023/02/15 08:24:07;;;;;;;43.72;23.13;;;;;;;6.43;58.53;101578.72;5052163;28;20021;-36
2023/02/15 08:26:33;;;;;;;41.85;23.45;;;;;;;6.82;58.45;101566.88;5051872;28;20037;-35
2023/02/15 08:29:00;;;;;;;39.90;21.13;;;;;;;7.04;56.81;101558.38;5050564;28;20021;-36
2023/02/15 08:31:26;;;;;;;33.30;19.35;;;;;;;7.35;55.45;101576.41;5051478;28;20031;-36
2023/02/15 08:33:53;;;;;;;35.63;18.60;;;;;;;7.60;54.07;101585.28;5051966;28;20111;-36
2023/02/15 08:36:21;;;;;;;33.10;17.60;;;;;;;6.99;54.50;101589.84;5051836;28;20036;-35
2023/02/15 08:38:47;;;;;;;36.50;19.33;;;;;;;7.20;54.97;101576.19;5051604;28;20025;-36
2023/02/15 08:41:19;;;;;;;35.60;18.92;;;;;;;7.28;55.14;101590.50;5051231;28;20053;-36
2023/02/15 08:43:47;;;;;;;30.42;17.33;;;;;;;7.30;54.79;101591.16;5051454;28;20504;-36
2023/02/15 08:46:14;;;;;;;33.08;18.45;;;;;;;6.96;55.14;101566.28;5051780;28;20048;-36
2023/02/15 08:48:39;;;;;;;35.33;18.02;;;;;;;7.39;54.60;101571.59;5051626;28;20126;-36
2023/02/15 08:51:18;;;;;;;32.38;17.50;;;;;;;7.46;54.09;101577.94;5051548;28;20477;-35
2023/02/15 08:53:49;;;;;;;37.10;17.15;;;;;;;7.64;53.49;101576.00;5051078;28;20056;-36
2023/02/15 08:56:15;;;;;;;30.98;16.70;;;;;;;7.86;54.22;101576.38;5051253;28;20088;-36
2023/02/15 08:58:41;;;;;;;35.38;17.90;;;;;;;8.01;52.91;101566.78;5050072;28;20049;-37
2023/02/15 09:01:19;;;;;;;31.63;17.45;;;;;;;7.73;53.32;101584.81;5051233;28;20060;-36
2023/02/15 09:03:45;;;;;;;;;;;;;;;7.84;53.24;101579.19;5050727;28;20025;-36
2023/02/15 09:06:11;;;;;;;31.42;16.73;;;;;;;7.93;53.15;101577.38;5051209;28;20015;-35
2023/02/15 09:08:37;;;;;;;31.83;16.45;;;;;;;7.86;52.68;101576.38;5051085;28;20107;-35
2023/02/15 09:11:11;;;;;;;31.52;16.17;;;;;;;7.73;53.67;101576.84;5050986;28;20061;-35
2023/02/15 09:13:38;;;;;;;36.20;17.92;;;;;;;8.07;52.13;101575.91;5050504;28;20051;-35
2023/02/15 09:16:05;;;;;;;31.85;17.90;;;;;;;8.38;51.87;101581.38;5049905;28;20461;-35
2023/02/15 09:18:35;;;;;;;33.45;17.55;;;;;;;8.53;51.47;101543.50;5049758;28;20032;-35
2023/02/15 09:21:22;;;;;;;34.25;17.92;;;;;;;8.78;49.81;101563.72;5050825;28;20033;-35
2023/02/15 09:23:52;;;;;;;33.33;17.20;;;;;;;8.85;49.76;101548.75;5051036;28;20033;-36
2023/02/15 09:26:19;;;;;;;32.47;18.25;;;;;;;8.87;49.77;101553.06;5049781;28;20394;-36
2023/02/15 09:28:45;;;;;;;33.38;18.17;;;;;;;9.42;48.51;101554.84;5050764;28;20700;-35
2023/02/15 09:31:16;;;;;;;33.95;18.55;;;;;;;9.44;48.52;101555.50;5050783;28;20041;-35
2023/02/15 09:33:43;;;;;;;32.60;18.02;;;;;;;9.67;48.18;101547.53;5048397;28;20052;-36
2023/02/15 09:36:32;;;;;;;31.75;19.05;;;;;;;10.10;46.93;101571.88;5034349;28;20110;-36
2023/02/15 09:39:09;;;;;;;36.28;21.17;;;;;;;10.30;47.27;101572.25;5030142;28;20077;-35
2023/02/15 09:42:04;;;;;;;31.93;17.50;;;;;;;10.61;46.57;101555.28;5030276;28;20034;-36
2023/02/15 09:44:57;;;;;;;35.13;19.17;;;;;;;11.03;45.58;101569.81;5030052;28;20109;-35
2023/02/15 09:47:31;;;;;;;37.88;20.05;;;;;;;11.36;44.99;101569.41;5030064;28;20472;-36
2023/02/15 09:50:11;;;;;;;30.08;17.98;;;;;;;11.39;43.70;101561.03;5035817;28;20511;-36
2023/02/15 09:52:51;;;;;;;49.15;27.75;;;;;;;11.41;43.89;101561.69;5039304;28;20033;-36
2023/02/15 09:55:28;;;;;;;32.35;18.92;;;;;;;11.52;43.33;101566.53;5038988;28;20166;-36
2023/02/15 09:58:12;;;;;;;36.20;21.15;;;;;;;11.34;44.39;101560.75;5043073;28;20065;-36
2023/02/15 10:01:12;;;;;;;30.23;17.50;;;;;;;11.62;43.28;101547.53;5050216;28;20541;-36
2023/02/15 10:04:14;;;;;;;32.58;19.05;;;;;;;11.65;42.93;101547.97;5050114;28;20559;-36
2023/02/15 10:07:01;;;;;;;34.60;18.25;;;;;;;11.82;42.50;101545.06;5048801;28;20029;-36
2023/02/15 10:09:35;;;;;;;31.20;17.65;;;;;;;11.88;43.44;101536.28;5049701;28;20106;-35
2023/02/15 10:12:16;;;;;;;31.02;17.85;;;;;;;11.87;41.93;101518.59;5050005;28;20021;-36
2023/02/15 10:14:50;;;;;;;31.20;18.98;;;;;;;12.51;42.09;101535.59;5050026;28;20090;-36
2023/02/15 10:17:24;;;;;;;30.95;18.85;;;;;;;12.16;42.09;101527.50;5049730;28;20086;-36
2023/02/15 10:19:50;;;;;;;29.70;18.90;;;;;;;12.53;41.60;101522.84;5049501;28;20039;-36
2023/02/15 10:22:43;;;;;;;27.45;17.70;;;;;;;12.32;42.11;101516.53;5050319;28;20033;-35
2023/02/15 10:25:29;;;;;;;30.52;17.98;;;;;;;12.73;40.71;101515.75;5049825;28;20056;-36
2023/02/15 10:27:58;;;;;;;30.13;17.77;;;;;;;12.80;39.83;101515.78;5049361;28;20029;-36
2023/02/15 10:30:33;;;;;;;32.03;19.15;;;;;;;12.72;40.79;101502.56;5048563;28;20412;-35
2023/02/15 10:33:06;;;;;;;30.17;18.08;;;;;;;12.75;41.02;101507.50;5049708;28;20225;-35
2023/02/15 10:36:23;;;;;;;27.02;15.90;;;;;;;12.65;40.39;101510.56;5049576;28;20024;-36
2023/02/15 10:39:07;;;;;;;27.10;16.30;;;;;;;12.37;40.57;101502.56;5049438;28;20036;-36
2023/02/15 10:41:38;;;;;;;32.70;17.08;;;;;;;13.13;41.25;101491.81;5049350;28;20043;-36
2023/02/15 10:44:19;;;;;;;25.48;15.75;;;;;;;13.52;38.66;101503.72;5049537;28;20051;-36
2023/02/15 10:47:07;;;;;;;27.77;14.73;;;;;;;13.52;38.46;101492.16;5049070;28;20025;-36
2023/02/15 10:49:41;;;;;;;25.13;15.23;;;;;;;13.44;37.58;101493.19;5049501;28;20056;-36
2023/02/15 10:52:17;;;;;;;22.90;15.25;;;;;;;12.90;39.35;101480.63;5049345;28;20042;-35
2023/02/15 10:54:56;;;;;;;23.38;14.00;;;;;;;13.34;37.83;101482.03;5049110;28;20033;-36
2023/02/15 10:57:39;;;;;;;22.80;14.50;;;;;;;13.46;38.05;101485.75;5048966;28;20082;-36
2023/02/15 11:00:07;;;;;;;21.25;13.27;;;;;;;13.78;37.10;101478.81;5049100;28;20059;-36
2023/02/15 11:02:42;;;;;;;20.00;12.77;;;;;;;13.46;36.51;101475.03;5048988;28;20557;-36
2023/02/15 11:05:25;;;;;;;21.02;12.98;;;;;;;13.22;37.05;101474.56;5049456;28;20511;-35
2023/02/15 11:07:54;;;;;;;20.48;13.02;;;;;;;13.58;36.38;101468.06;5049256;28;20033;-36
2023/02/15 11:10:27;;;;;;;19.15;10.80;;;;;;;14.20;35.58;101486.63;5048923;28;20041;-36
2023/02/15 11:12:56;;;;;;;21.30;11.10;;;;;;;13.35;36.02;101456.91;5049006;28;20039;-35
2023/02/15 11:15:32;;;;;;;21.40;11.55;;;;;;;12.67;36.63;101444.28;5048559;28;20053;-36
2023/02/15 11:18:19;;;;;;;16.33;10.15;;;;;;;13.26;35.92;101481.16;5048824;28;20036;-35
2023/02/15 11:21:09;;;;;;;76.90;34.55;;;;;;;13.77;34.93;101466.44;5048939;28;20033;-36
2023/02/15 11:23:40;;;;;;;16.80;10.15;;;;;;;13.77;34.70;101457.56;5039618;28;20021;-35
2023/02/15 11:26:14;;;;;;;24.90;12.38;;;;;;;14.18;33.91;101445.75;5048340;28;20037;-36
2023/02/15 11:28:49;;;;;;;15.65;9.82;;;;;;;13.98;33.68;101462.72;5053424;28;20039;-35
2023/02/15 11:31:20;;;;;;;15.32;9.50;;;;;;;13.46;34.55;101448.25;5053033;28;20112;-36
2023/02/15 11:33:51;;;;;;;15.73;9.02;;;;;;;13.77;34.05;101436.09;5053037;28;20025;-35
2023/02/15 11:36:24;;;;;;;16.48;9.48;;;;;;;14.02;34.41;101455.91;5051864;28;20037;-36
2023/02/15 11:38:56;;;;;;;17.42;10.18;;;;;;;13.97;34.12;101450.31;5040268;28;20437;-36
2023/02/15 11:41:27;;;;;;;14.40;9.40;;;;;;;14.76;33.13;101431.59;5032891;28;20429;-36
2023/02/15 11:43:58;;;;;;;14.90;9.18;;;;;;;15.49;31.16;101444.63;5032932;28;20033;-36
2023/02/15 11:46:24;;;;;;;12.68;8.35;;;;;;;14.92;31.46;101419.56;5033028;28;20131;-36
2023/02/15 11:48:49;;;;;;;15.18;8.90;;;;;;;14.98;31.77;101430.25;5032690;28;20552;-36
2023/02/15 11:51:18;;;;;;;15.95;8.98;;;;;;;14.64;31.47;101412.66;5032428;28;20080;-36
2023/02/15 11:53:46;;;;;;;15.48;8.95;;;;;;;14.83;31.64;101417.13;5032620;28;20032;-36